createdAt,value
2019-05-20T00:02:57.207Z,14.13
2019-05-20T00:07:05.812Z,17.33
2019-05-20T00:11:14.426Z,16.43
2019-05-20T00:15:23.081Z,16.33
2019-05-20T00:19:31.724Z,17.17
2019-05-20T00:23:40.317Z,16.27
2019-05-20T00:27:48.944Z,15.60
2019-05-20T00:31:57.566Z,17.43
2019-05-20T00:36:06.303Z,16.77
2019-05-20T00:40:15.210Z,17.80
2019-05-20T00:44:26.745Z,19.20
2019-05-20T00:48:35.386Z,18.40
2019-05-20T00:52:43.983Z,18.33
2019-05-20T00:56:52.980Z,19.13
2019-05-20T01:01:01.579Z,18.77
2019-05-20T01:05:10.241Z,22.50
2019-05-20T01:09:18.910Z,21.77
2019-05-20T01:13:27.497Z,22.63
2019-05-20T01:17:36.508Z,23.70
2019-05-20T01:21:45.103Z,25.70
2019-05-20T01:25:54.081Z,27.70
2019-05-20T01:30:22.447Z,26.47
2019-05-20T01:34:31.039Z,28.90
2019-05-20T01:38:39.687Z,28.07
2019-05-20T01:42:48.265Z,27.67
2019-05-20T01:46:56.907Z,27.77
2019-05-20T01:51:05.597Z,26.40
2019-05-20T01:55:14.301Z,26.10
2019-05-20T01:59:22.910Z,26.10
2019-05-20T02:03:32.550Z,27.47
2019-05-20T02:07:41.290Z,26.70
2019-05-20T02:11:50.404Z,27.17
2019-05-20T02:16:03.506Z,29.43
2019-05-20T02:20:12.375Z,28.70
2019-05-20T02:24:21.004Z,28.57
2019-05-20T02:28:29.947Z,29.77
2019-05-20T02:32:38.568Z,28.37
2019-05-20T02:36:47.204Z,29.00
2019-05-20T02:40:55.863Z,26.50
2019-05-20T02:45:07.575Z,28.13
2019-05-20T02:49:16.221Z,27.73
2019-05-20T02:53:24.872Z,29.57
2019-05-20T02:57:33.463Z,26.60
2019-05-20T03:01:42.089Z,27.33
2019-05-20T03:05:50.732Z,26.83
2019-05-20T03:09:59.760Z,28.57
2019-05-20T03:14:08.375Z,26.97
2019-05-20T03:18:17.419Z,27.67
2019-05-20T03:22:26.062Z,25.80
2019-05-20T03:26:34.661Z,29.60
2019-05-20T03:30:43.806Z,27.27
2019-05-20T03:34:59.475Z,27.77
2019-05-20T03:39:03.043Z,27.50
2019-05-20T03:43:11.656Z,27.17
2019-05-20T03:47:20.375Z,28.17
2019-05-20T03:51:29.021Z,27.20
2019-05-20T03:55:56.995Z,26.30
2019-05-20T04:00:08.739Z,27.17
2019-05-20T04:04:17.331Z,30.10
2019-05-20T04:08:26.075Z,28.50
2019-05-20T04:12:37.329Z,28.67
2019-05-20T04:16:45.974Z,28.00
2019-05-20T04:20:54.917Z,28.57
2019-05-20T04:25:04.363Z,29.50
2019-05-20T04:29:13.518Z,27.40
2019-05-20T04:33:22.116Z,28.40
2019-05-20T04:37:30.749Z,26.97
2019-05-20T04:41:39.345Z,26.67
2019-05-20T04:45:48.414Z,25.40
2019-05-20T04:49:57.093Z,26.10
2019-05-20T04:54:06.069Z,27.17
2019-05-20T04:58:14.702Z,26.63
2019-05-20T05:02:23.361Z,27.90
2019-05-20T05:06:32.028Z,25.30
2019-05-20T05:10:40.701Z,24.97
2019-05-20T05:14:49.319Z,24.70
2019-05-20T05:18:58.004Z,25.07
2019-05-20T05:23:09.544Z,26.83
2019-05-20T05:27:18.475Z,22.17
2019-05-20T05:31:27.101Z,24.57
2019-05-20T05:35:35.771Z,23.70
2019-05-20T05:39:44.390Z,25.80
2019-05-20T05:43:53.442Z,24.17
2019-05-20T05:48:02.479Z,23.97
2019-05-20T05:52:11.422Z,25.10
2019-05-20T05:56:20.120Z,24.60
2019-05-20T06:00:28.889Z,23.03
2019-05-20T06:04:37.492Z,24.53
2019-05-20T06:08:46.357Z,27.07
2019-05-20T06:12:54.975Z,23.77
2019-05-20T06:17:03.612Z,25.00
2019-05-20T06:21:12.233Z,23.80
2019-05-20T06:25:21.029Z,25.93
2019-05-20T06:29:29.612Z,24.87
2019-05-20T06:33:38.318Z,24.43
2019-05-20T06:37:48.553Z,24.40
2019-05-20T06:41:57.208Z,22.57
2019-05-20T06:46:06.018Z,24.67
2019-05-20T06:50:14.974Z,24.00
2019-05-20T06:54:23.603Z,23.07
2019-05-20T06:58:32.307Z,23.80
2019-05-20T07:02:40.988Z,22.10
2019-05-20T07:06:49.614Z,24.37
2019-05-20T07:10:58.314Z,24.30
2019-05-20T07:15:10.259Z,20.97
2019-05-20T07:19:18.935Z,23.43
2019-05-20T07:23:27.721Z,23.10
2019-05-20T07:27:36.352Z,21.30
2019-05-20T07:31:44.931Z,22.13
2019-05-20T07:35:53.487Z,22.00
2019-05-20T07:40:02.295Z,22.80
2019-05-20T07:44:10.864Z,24.00
2019-05-20T07:48:19.835Z,24.57
2019-05-20T07:52:28.889Z,22.10
2019-05-20T07:56:40.616Z,23.23
2019-05-20T08:00:49.662Z,24.30
2019-05-20T08:04:58.827Z,24.10
2019-05-20T08:09:08.311Z,24.00
2019-05-20T08:13:16.967Z,23.43
2019-05-20T08:17:26.124Z,22.93
2019-05-20T08:21:34.777Z,24.43
2019-05-20T08:25:43.525Z,23.03
2019-05-20T08:29:52.506Z,23.13
2019-05-20T08:34:01.179Z,23.23
2019-05-20T08:38:09.822Z,24.10
2019-05-20T08:42:18.459Z,23.70
2019-05-20T08:46:27.464Z,21.07
2019-05-20T08:50:36.165Z,23.57
2019-05-20T08:54:44.783Z,21.77
2019-05-20T08:58:53.404Z,23.40
2019-05-20T09:03:02.063Z,23.60
2019-05-20T09:07:10.677Z,21.93
2019-05-20T09:11:19.312Z,23.07
2019-05-20T09:15:28.171Z,26.83
2019-05-20T09:19:37.201Z,24.30
2019-05-20T09:23:45.844Z,24.00
2019-05-20T09:27:54.449Z,24.90
2019-05-20T09:32:03.197Z,23.43
2019-05-20T09:36:11.840Z,24.30
2019-05-20T09:40:38.083Z,25.57
2019-05-20T09:44:46.779Z,27.37
2019-05-20T09:48:55.372Z,24.50
2019-05-20T09:53:06.787Z,27.07
2019-05-20T09:57:14.475Z,25.97
2019-05-20T10:01:23.110Z,26.53
2019-05-20T10:05:31.764Z,25.90
2019-05-20T10:09:40.685Z,26.80
2019-05-20T10:13:49.326Z,28.57
2019-05-20T10:17:57.950Z,29.07
2019-05-20T10:22:06.772Z,28.43
2019-05-20T10:26:15.471Z,26.73
2019-05-20T10:30:24.471Z,26.77
2019-05-20T10:34:33.081Z,28.07
2019-05-20T10:38:58.161Z,28.67
2019-05-20T10:42:52.123Z,27.77
2019-05-20T10:47:00.835Z,27.13
2019-05-20T10:51:10.444Z,25.57
2019-05-20T10:55:19.930Z,27.40
2019-05-20T10:59:28.628Z,24.10
2019-05-20T11:03:37.276Z,24.93
2019-05-20T11:07:46.036Z,28.93
2019-05-20T11:11:54.614Z,28.83
2019-05-20T11:16:03.344Z,29.93
2019-05-20T11:20:12.218Z,32.23
2019-05-20T11:24:21.215Z,31.20
2019-05-20T11:28:30.208Z,30.47
2019-05-20T11:32:39.026Z,30.50
2019-05-20T11:36:47.692Z,29.77
2019-05-20T11:40:56.627Z,30.17
2019-05-20T11:45:11.071Z,31.07
2019-05-20T11:49:20.136Z,31.97
2019-05-20T11:53:28.750Z,29.23
2019-05-20T11:57:37.619Z,29.47
2019-05-20T12:01:46.229Z,30.00
2019-05-20T12:05:55.351Z,25.10
2019-05-20T12:10:09.091Z,25.90
2019-05-20T12:14:17.697Z,30.07
2019-05-20T12:18:26.375Z,29.57
2019-05-20T12:22:34.966Z,32.67
2019-05-20T12:26:43.585Z,31.27
2019-05-20T12:31:11.636Z,29.00
2019-05-20T12:35:20.251Z,30.03
2019-05-20T12:39:28.859Z,28.37
2019-05-20T12:43:37.555Z,33.23
2019-05-20T12:47:46.239Z,31.70
2019-05-20T12:51:54.883Z,30.50
2019-05-20T12:56:03.881Z,31.23
2019-05-20T13:00:14.184Z,32.13
2019-05-20T13:04:22.810Z,32.70
2019-05-20T13:08:31.417Z,34.87
2019-05-20T13:12:59.385Z,33.90
2019-05-20T13:17:08.295Z,33.10
2019-05-20T13:21:16.927Z,31.33
2019-05-20T13:25:25.537Z,34.67
2019-05-20T13:29:34.271Z,35.63
2019-05-20T13:33:42.860Z,37.13
2019-05-20T13:37:51.876Z,36.80
2019-05-20T13:42:00.742Z,34.27
2019-05-20T13:46:09.769Z,33.70
2019-05-20T13:50:18.618Z,33.37
2019-05-20T13:54:27.281Z,30.30
2019-05-20T13:58:35.913Z,32.50
2019-05-20T14:02:44.987Z,30.67
2019-05-20T14:06:53.671Z,30.87
2019-05-20T14:11:04.773Z,30.63
2019-05-20T14:15:12.781Z,27.63
2019-05-20T14:19:22.748Z,29.63
2019-05-20T14:23:31.505Z,28.63
2019-05-20T14:27:40.134Z,28.80
2019-05-20T14:31:48.739Z,29.13
2019-05-20T14:36:00.775Z,29.27
2019-05-20T14:40:10.034Z,30.30
2019-05-20T14:44:18.655Z,30.13
2019-05-20T14:48:27.202Z,29.30
2019-05-20T14:52:35.794Z,28.90
2019-05-20T14:56:44.756Z,32.13
2019-05-20T15:00:53.492Z,29.40
2019-05-20T15:05:02.605Z,31.53
2019-05-20T15:09:11.293Z,30.13
2019-05-20T15:13:19.892Z,30.13
2019-05-20T15:17:28.529Z,30.17
2019-05-20T15:21:37.161Z,29.33
2019-05-20T15:25:45.895Z,33.40
2019-05-20T15:29:54.551Z,32.97
2019-05-20T15:34:03.237Z,35.53
2019-05-20T15:38:11.934Z,35.70
2019-05-20T15:42:20.599Z,32.00
2019-05-20T15:46:29.245Z,34.60
2019-05-20T15:50:37.815Z,36.00
2019-05-20T15:54:46.413Z,34.20
2019-05-20T15:58:55.066Z,38.97
2019-05-20T16:03:04.040Z,32.70
2019-05-20T16:07:12.666Z,38.77
2019-05-20T16:11:21.280Z,37.37
2019-05-20T16:15:29.967Z,32.80
2019-05-20T16:19:41.249Z,31.93
2019-05-20T16:23:49.866Z,32.97
2019-05-20T16:27:58.477Z,31.87
2019-05-20T16:32:07.113Z,30.97
2019-05-20T16:36:15.732Z,30.00
2019-05-20T16:40:24.412Z,32.60
2019-05-20T16:44:33.035Z,33.33
2019-05-20T16:48:41.629Z,28.23
2019-05-20T16:52:50.601Z,31.80
2019-05-20T16:57:18.809Z,32.80
2019-05-20T17:01:30.211Z,31.33
2019-05-20T17:05:38.957Z,31.80
2019-05-20T17:09:47.555Z,27.67
2019-05-20T17:13:56.227Z,34.87
2019-05-20T17:18:05.330Z,34.00
2019-05-20T17:22:17.518Z,30.10
2019-05-20T17:26:26.163Z,31.20
2019-05-20T17:30:45.058Z,31.23
2019-05-20T17:34:45.149Z,29.70
2019-05-20T17:38:53.781Z,27.20
2019-05-20T17:43:02.394Z,28.23
2019-05-20T17:47:11.074Z,27.63
2019-05-20T17:51:19.715Z,26.73
2019-05-20T17:55:29.573Z,27.73
2019-05-20T17:59:38.764Z,25.63
2019-05-20T18:03:47.420Z,25.60
2019-05-20T18:07:56.046Z,24.10
2019-05-20T18:12:04.722Z,23.87
2019-05-20T18:16:13.793Z,26.70
2019-05-20T18:20:22.757Z,24.30
2019-05-20T18:24:31.363Z,25.40
2019-05-20T18:28:40.061Z,29.07
2019-05-20T18:32:48.669Z,28.40
2019-05-20T18:36:57.305Z,26.93
2019-05-20T18:41:06.383Z,26.50
2019-05-20T18:45:15.198Z,26.23
2019-05-20T18:49:25.180Z,28.67
2019-05-20T18:53:33.825Z,29.43
2019-05-20T18:57:42.420Z,29.43
2019-05-20T19:02:04.764Z,28.60
2019-05-20T19:06:01.735Z,27.80
2019-05-20T19:10:10.895Z,29.40
2019-05-20T19:14:19.600Z,30.50
2019-05-20T19:18:28.661Z,30.80
2019-05-20T19:22:37.351Z,31.80
2019-05-20T19:26:45.941Z,29.20
2019-05-20T19:30:54.587Z,28.93
2019-05-20T19:35:04.736Z,28.60
2019-05-20T19:39:13.350Z,26.87
2019-05-20T19:43:41.337Z,26.90
2019-05-20T19:47:49.953Z,28.27
2019-05-20T19:51:58.893Z,31.97
2019-05-20T19:56:07.499Z,28.87
2019-05-20T20:00:16.577Z,32.57
2019-05-20T20:04:25.509Z,34.40
2019-05-20T20:08:34.139Z,32.77
2019-05-20T20:12:42.806Z,34.00
2019-05-20T20:16:51.454Z,32.67
2019-05-20T20:21:00.082Z,36.27
2019-05-20T20:25:09.257Z,34.53
2019-05-20T20:29:17.834Z,36.47
2019-05-20T20:33:26.453Z,35.90
2019-05-20T20:37:35.449Z,34.50
2019-05-20T20:41:44.108Z,31.53
2019-05-20T20:45:52.672Z,27.87
2019-05-20T20:50:02.413Z,28.37
2019-05-20T20:54:11.157Z,23.43
2019-05-20T20:58:19.812Z,24.40
2019-05-20T21:02:28.441Z,23.90
2019-05-20T21:06:37.062Z,23.70
2019-05-20T21:10:46.015Z,23.10
2019-05-20T21:14:54.715Z,21.07
2019-05-20T21:19:03.367Z,20.73
2019-05-20T21:23:12.099Z,21.27
2019-05-20T21:27:20.750Z,21.47
2019-05-20T21:31:29.367Z,20.47
2019-05-20T21:35:38.056Z,22.90
2019-05-20T21:39:48.331Z,23.43
2019-05-20T21:43:56.986Z,23.97
2019-05-20T21:48:05.934Z,23.40
2019-05-20T21:52:14.547Z,23.80
2019-05-20T21:56:23.153Z,23.00
2019-05-20T22:00:48.324Z,25.03
2019-05-20T22:04:56.903Z,28.57
2019-05-20T22:09:06.648Z,25.73
2019-05-20T22:13:15.972Z,27.80
2019-05-20T22:17:24.617Z,28.60
2019-05-20T22:21:43.701Z,29.07
2019-05-20T22:25:52.944Z,28.27
2019-05-20T22:30:01.528Z,29.17
2019-05-20T22:34:10.231Z,26.10
2019-05-20T22:38:19.290Z,24.75
2019-05-20T22:42:27.931Z,24.37
2019-05-20T22:46:36.564Z,24.67
2019-05-20T22:50:48.639Z,26.70
2019-05-20T22:54:55.886Z,24.13
2019-05-20T22:59:04.900Z,23.30
2019-05-20T23:03:13.543Z,25.00
2019-05-20T23:07:22.249Z,23.40
2019-05-20T23:11:30.959Z,22.13
2019-05-20T23:15:39.613Z,23.83
2019-05-20T23:19:48.253Z,23.47
2019-05-20T23:23:57.283Z,23.10
2019-05-20T23:28:05.960Z,20.70
2019-05-20T23:32:14.623Z,20.73
2019-05-20T23:36:23.315Z,20.70
2019-05-20T23:40:32.208Z,18.50
2019-05-20T23:44:41.157Z,16.60
2019-05-20T23:48:49.790Z,18.30
2019-05-20T23:52:58.405Z,15.77
2019-05-20T23:57:07.023Z,17.83
